sensor_id;sensor_type;location;lat;lon;timestamp;temperature;humidity
21335;DHT22;10826;52.536;13.432;2023-04-01T00:00:23;12.30;68.80
21335;DHT22;10826;52.536;13.432;2023-04-01T00:03:09;12.30;68.80
21335;DHT22;10826;52.536;13.432;2023-04-01T00:05:56;12.20;68.80
21335;DHT22;10826;52.536;13.432;2023-04-01T00:08:44;12.20;68.80
21335;DHT22;10826;52.536;13.432;2023-04-01T00:11:30;12.30;69.00
21335;DHT22;10826;52.536;13.432;2023-04-01T00:14:16;12.20;68.90
21335;DHT22;10826;52.536;13.432;2023-04-01T00:17:03;12.20;68.90
21335;DHT22;10826;52.536;13.432;2023-04-01T00:19:49;12.20;68.90
21335;DHT22;10826;52.536;13.432;2023-04-01T00:22:35;12.20;68.90
21335;DHT22;10826;52.536;13.432;2023-04-01T00:25:21;12.20;69.00
21335;DHT22;10826;52.536;13.432;2023-04-01T00:28:09;12.20;69.00
21335;DHT22;10826;52.536;13.432;2023-04-01T00:30:55;12.20;69.00
21335;DHT22;10826;52.536;13.432;2023-04-01T00:33:42;12.20;69.10
21335;DHT22;10826;52.536;13.432;2023-04-01T00:36:28;12.20;69.10
21335;DHT22;10826;52.536;13.432;2023-04-01T00:39:14;12.20;69.20
21335;DHT22;10826;52.536;13.432;2023-04-01T00:42:02;12.20;69.20
21335;DHT22;10826;52.536;13.432;2023-04-01T00:44:54;12.10;69.20
21335;DHT22;10826;52.536;13.432;2023-04-01T00:47:40;12.20;69.10
21335;DHT22;10826;52.536;13.432;2023-04-01T00:50:26;12.10;69.20
21335;DHT22;10826;52.536;13.432;2023-04-01T00:53:16;12.20;69.20
21335;DHT22;10826;52.536;13.432;2023-04-01T00:56:19;12.20;69.20
21335;DHT22;10826;52.536;13.432;2023-04-01T00:59:16;12.20;69.10
21335;DHT22;10826;52.536;13.432;2023-04-01T01:02:11;12.10;69.20
21335;DHT22;10826;52.536;13.432;2023-04-01T01:04:58;12.10;69.30
21335;DHT22;10826;52.536;13.432;2023-04-01T01:08:07;12.10;69.30
21335;DHT22;10826;52.536;13.432;2023-04-01T01:11:08;12.10;69.00
21335;DHT22;10826;52.536;13.432;2023-04-01T01:17:32;12.20;69.00
21335;DHT22;10826;52.536;13.432;2023-04-01T01:24:30;12.10;69.00
21335;DHT22;10826;52.536;13.432;2023-04-01T01:27:41;12.10;69.10
21335;DHT22;10826;52.536;13.432;2023-04-01T01:34:20;12.10;69.00
21335;DHT22;10826;52.536;13.432;2023-04-01T01:37:15;12.10;68.90
21335;DHT22;10826;52.536;13.432;2023-04-01T01:40:06;12.10;69.20
21335;DHT22;10826;52.536;13.432;2023-04-01T01:43:01;12.10;69.10
21335;DHT22;10826;52.536;13.432;2023-04-01T01:45:54;12.10;69.00
21335;DHT22;10826;52.536;13.432;2023-04-01T01:48:54;12.10;69.00
21335;DHT22;10826;52.536;13.432;2023-04-01T01:51:45;12.20;68.80
21335;DHT22;10826;52.536;13.432;2023-04-01T01:54:31;12.10;69.00
21335;DHT22;10826;52.536;13.432;2023-04-01T01:57:18;12.00;69.00
21335;DHT22;10826;52.536;13.432;2023-04-01T02:00:09;12.00;69.10
21335;DHT22;10826;52.536;13.432;2023-04-01T02:03:00;12.00;69.10
21335;DHT22;10826;52.536;13.432;2023-04-01T02:05:47;12.00;69.20
21335;DHT22;10826;52.536;13.432;2023-04-01T02:11:51;12.00;69.40
21335;DHT22;10826;52.536;13.432;2023-04-01T02:14:57;12.00;69.90
21335;DHT22;10826;52.536;13.432;2023-04-01T02:17:50;12.10;69.30
21335;DHT22;10826;52.536;13.432;2023-04-01T02:20:38;12.10;69.20
21335;DHT22;10826;52.536;13.432;2023-04-01T02:23:26;12.10;69.20
21335;DHT22;10826;52.536;13.432;2023-04-01T02:26:14;12.10;69.10
21335;DHT22;10826;52.536;13.432;2023-04-01T02:29:02;12.10;69.20
21335;DHT22;10826;52.536;13.432;2023-04-01T02:31:51;12.10;69.20
21335;DHT22;10826;52.536;13.432;2023-04-01T02:34:39;12.10;69.20
21335;DHT22;10826;52.536;13.432;2023-04-01T02:37:36;12.00;69.20
21335;DHT22;10826;52.536;13.432;2023-04-01T02:40:23;12.10;69.20
21335;DHT22;10826;52.536;13.432;2023-04-01T02:43:09;12.10;69.20
21335;DHT22;10826;52.536;13.432;2023-04-01T02:45:55;12.10;69.20
21335;DHT22;10826;52.536;13.432;2023-04-01T02:48:42;12.10;69.30
21335;DHT22;10826;52.536;13.432;2023-04-01T02:51:28;12.10;69.40
21335;DHT22;10826;52.536;13.432;2023-04-01T02:54:26;12.10;69.40
21335;DHT22;10826;52.536;13.432;2023-04-01T02:57:12;12.10;69.40
21335;DHT22;10826;52.536;13.432;2023-04-01T02:59:58;12.10;69.40
21335;DHT22;10826;52.536;13.432;2023-04-01T03:02:45;12.10;69.30
21335;DHT22;10826;52.536;13.432;2023-04-01T03:05:32;12.10;69.30
21335;DHT22;10826;52.536;13.432;2023-04-01T03:08:18;12.10;69.20
21335;DHT22;10826;52.536;13.432;2023-04-01T03:11:06;12.20;69.10
21335;DHT22;10826;52.536;13.432;2023-04-01T03:13:53;12.20;69.10
21335;DHT22;10826;52.536;13.432;2023-04-01T03:16:42;12.20;69.10
21335;DHT22;10826;52.536;13.432;2023-04-01T03:19:28;12.20;69.10
21335;DHT22;10826;52.536;13.432;2023-04-01T03:22:14;12.20;69.10
21335;DHT22;10826;52.536;13.432;2023-04-01T03:25:02;12.20;69.20
21335;DHT22;10826;52.536;13.432;2023-04-01T03:27:48;12.20;69.20
21335;DHT22;10826;52.536;13.432;2023-04-01T03:30:34;12.20;69.20
21335;DHT22;10826;52.536;13.432;2023-04-01T03:33:20;12.20;69.20
21335;DHT22;10826;52.536;13.432;2023-04-01T03:36:06;12.20;69.10
21335;DHT22;10826;52.536;13.432;2023-04-01T03:38:53;12.30;70.00
21335;DHT22;10826;52.536;13.432;2023-04-01T03:41:39;12.30;69.20
21335;DHT22;10826;52.536;13.432;2023-04-01T03:44:25;12.20;69.20
21335;DHT22;10826;52.536;13.432;2023-04-01T03:47:14;12.20;69.10
21335;DHT22;10826;52.536;13.432;2023-04-01T03:50:01;12.30;69.10
21335;DHT22;10826;52.536;13.432;2023-04-01T03:52:47;12.30;69.10
21335;DHT22;10826;52.536;13.432;2023-04-01T03:55:35;12.30;69.10
21335;DHT22;10826;52.536;13.432;2023-04-01T03:58:23;12.30;69.00
21335;DHT22;10826;52.536;13.432;2023-04-01T04:01:20;12.30;69.10
21335;DHT22;10826;52.536;13.432;2023-04-01T04:04:10;12.30;68.90
21335;DHT22;10826;52.536;13.432;2023-04-01T04:06:57;12.30;69.10
21335;DHT22;10826;52.536;13.432;2023-04-01T04:09:43;12.30;69.10
21335;DHT22;10826;52.536;13.432;2023-04-01T04:12:30;12.30;69.10
21335;DHT22;10826;52.536;13.432;2023-04-01T04:15:18;12.30;69.00
21335;DHT22;10826;52.536;13.432;2023-04-01T04:18:04;12.30;69.00
21335;DHT22;10826;52.536;13.432;2023-04-01T04:20:51;12.30;69.00
21335;DHT22;10826;52.536;13.432;2023-04-01T04:23:37;12.30;69.00
21335;DHT22;10826;52.536;13.432;2023-04-01T04:26:23;12.30;69.10
21335;DHT22;10826;52.536;13.432;2023-04-01T04:29:09;12.30;69.00
21335;DHT22;10826;52.536;13.432;2023-04-01T04:31:55;12.30;69.00
21335;DHT22;10826;52.536;13.432;2023-04-01T04:34:41;12.30;69.00
21335;DHT22;10826;52.536;13.432;2023-04-01T04:37:27;12.30;69.00
21335;DHT22;10826;52.536;13.432;2023-04-01T04:40:14;12.30;69.00
21335;DHT22;10826;52.536;13.432;2023-04-01T04:43:00;12.30;69.00
21335;DHT22;10826;52.536;13.432;2023-04-01T04:45:46;12.30;69.00
21335;DHT22;10826;52.536;13.432;2023-04-01T04:48:40;12.30;68.90
21335;DHT22;10826;52.536;13.432;2023-04-01T04:51:28;12.40;68.80
21335;DHT22;10826;52.536;13.432;2023-04-01T04:54:14;12.30;68.80
21335;DHT22;10826;52.536;13.432;2023-04-01T04:57:00;12.30;68.80
21335;DHT22;10826;52.536;13.432;2023-04-01T04:59:46;12.30;68.90
21335;DHT22;10826;52.536;13.432;2023-04-01T05:02:32;12.30;68.90
21335;DHT22;10826;52.536;13.432;2023-04-01T05:05:18;12.30;68.90
21335;DHT22;10826;52.536;13.432;2023-04-01T05:08:07;12.30;68.90
21335;DHT22;10826;52.536;13.432;2023-04-01T05:10:53;12.40;68.80
21335;DHT22;10826;52.536;13.432;2023-04-01T05:13:39;12.40;68.80
21335;DHT22;10826;52.536;13.432;2023-04-01T05:16:25;12.40;68.70
21335;DHT22;10826;52.536;13.432;2023-04-01T05:19:13;12.40;68.70
21335;DHT22;10826;52.536;13.432;2023-04-01T05:21:59;12.30;69.60
21335;DHT22;10826;52.536;13.432;2023-04-01T05:24:45;12.30;68.80
21335;DHT22;10826;52.536;13.432;2023-04-01T05:27:38;12.30;68.80
21335;DHT22;10826;52.536;13.432;2023-04-01T05:30:24;12.40;68.70
21335;DHT22;10826;52.536;13.432;2023-04-01T05:33:11;12.40;68.60
21335;DHT22;10826;52.536;13.432;2023-04-01T05:36:10;12.40;68.80
21335;DHT22;10826;52.536;13.432;2023-04-01T05:39:00;12.40;68.80
21335;DHT22;10826;52.536;13.432;2023-04-01T05:41:46;12.40;69.10
21335;DHT22;10826;52.536;13.432;2023-04-01T05:44:32;12.40;69.00
21335;DHT22;10826;52.536;13.432;2023-04-01T05:47:18;12.50;69.10
21335;DHT22;10826;52.536;13.432;2023-04-01T05:50:04;12.50;69.00
21335;DHT22;10826;52.536;13.432;2023-04-01T05:52:54;12.50;69.20
21335;DHT22;10826;52.536;13.432;2023-04-01T05:55:40;12.40;69.00
21335;DHT22;10826;52.536;13.432;2023-04-01T05:58:29;12.50;69.20
21335;DHT22;10826;52.536;13.432;2023-04-01T06:01:15;12.50;69.20
21335;DHT22;10826;52.536;13.432;2023-04-01T06:04:01;12.50;69.30
21335;DHT22;10826;52.536;13.432;2023-04-01T06:06:47;12.50;69.20
21335;DHT22;10826;52.536;13.432;2023-04-01T06:09:33;12.60;69.20
21335;DHT22;10826;52.536;13.432;2023-04-01T06:12:39;12.60;69.20
21335;DHT22;10826;52.536;13.432;2023-04-01T06:15:43;12.70;69.30
21335;DHT22;10826;52.536;13.432;2023-04-01T06:19:07;12.60;69.10
21335;DHT22;10826;52.536;13.432;2023-04-01T06:43:19;12.60;67.90
21335;DHT22;10826;52.536;13.432;2023-04-01T06:49:56;12.40;67.80
21335;DHT22;10826;52.536;13.432;2023-04-01T06:53:16;12.30;67.90
21335;DHT22;10826;52.536;13.432;2023-04-01T06:56:15;12.10;68.00
21335;DHT22;10826;52.536;13.432;2023-04-01T06:59:10;12.00;68.00
21335;DHT22;10826;52.536;13.432;2023-04-01T07:02:12;11.90;68.20
21335;DHT22;10826;52.536;13.432;2023-04-01T07:05:31;11.80;68.20
21335;DHT22;10826;52.536;13.432;2023-04-01T07:08:25;11.80;68.30
21335;DHT22;10826;52.536;13.432;2023-04-01T07:11:29;11.70;68.40
21335;DHT22;10826;52.536;13.432;2023-04-01T07:14:29;11.70;68.60
21335;DHT22;10826;52.536;13.432;2023-04-01T07:17:31;11.60;68.70
21335;DHT22;10826;52.536;13.432;2023-04-01T07:20:31;11.60;68.80
21335;DHT22;10826;52.536;13.432;2023-04-01T07:23:33;11.60;68.60
21335;DHT22;10826;52.536;13.432;2023-04-01T07:26:24;11.60;68.70
21335;DHT22;10826;52.536;13.432;2023-04-01T07:29:13;11.50;68.80
21335;DHT22;10826;52.536;13.432;2023-04-01T07:32:23;11.50;68.90
21335;DHT22;10826;52.536;13.432;2023-04-01T07:35:49;11.50;69.70
21335;DHT22;10826;52.536;13.432;2023-04-01T07:39:22;11.50;68.70
21335;DHT22;10826;52.536;13.432;2023-04-01T07:49:08;11.40;68.70
21335;DHT22;10826;52.536;13.432;2023-04-01T07:52:13;11.40;69.10
21335;DHT22;10826;52.536;13.432;2023-04-01T07:55:34;11.40;69.10
21335;DHT22;10826;52.536;13.432;2023-04-01T08:02:01;11.30;69.00
21335;DHT22;10826;52.536;13.432;2023-04-01T08:05:04;11.30;68.90
21335;DHT22;10826;52.536;13.432;2023-04-01T08:08:13;11.30;69.10
21335;DHT22;10826;52.536;13.432;2023-04-01T08:11:34;11.30;69.00
21335;DHT22;10826;52.536;13.432;2023-04-01T08:21:51;11.30;69.10
21335;DHT22;10826;52.536;13.432;2023-04-01T08:24:42;11.40;69.30
21335;DHT22;10826;52.536;13.432;2023-04-01T08:27:51;11.40;69.20
21335;DHT22;10826;52.536;13.432;2023-04-01T08:33:53;11.50;68.60
21335;DHT22;10826;52.536;13.432;2023-04-01T08:36:45;11.50;68.70
21335;DHT22;10826;52.536;13.432;2023-04-01T08:39:48;11.50;68.80
21335;DHT22;10826;52.536;13.432;2023-04-01T08:49:21;11.60;68.10
21335;DHT22;10826;52.536;13.432;2023-04-01T08:56:12;11.50;67.90
21335;DHT22;10826;52.536;13.432;2023-04-01T09:09:37;11.50;67.30
21335;DHT22;10826;52.536;13.432;2023-04-01T09:16:07;11.40;67.80
21335;DHT22;10826;52.536;13.432;2023-04-01T09:20:19;11.40;67.80
21335;DHT22;10826;52.536;13.432;2023-04-01T09:30:32;11.50;67.70
21335;DHT22;10826;52.536;13.432;2023-04-01T09:37:19;11.50;67.90
21335;DHT22;10826;52.536;13.432;2023-04-01T09:43:46;11.50;67.70
21335;DHT22;10826;52.536;13.432;2023-04-01T09:57:22;11.60;67.10
21335;DHT22;10826;52.536;13.432;2023-04-01T10:00:55;11.60;66.80
21335;DHT22;10826;52.536;13.432;2023-04-01T10:11:19;11.60;66.50
21335;DHT22;10826;52.536;13.432;2023-04-01T10:14:37;11.60;66.40
21335;DHT22;10826;52.536;13.432;2023-04-01T10:18:00;11.60;66.10
21335;DHT22;10826;52.536;13.432;2023-04-01T10:25:07;11.50;66.00
21335;DHT22;10826;52.536;13.432;2023-04-01T10:32:04;11.30;66.40
21335;DHT22;10826;52.536;13.432;2023-04-01T10:35:38;11.30;66.80
21335;DHT22;10826;52.536;13.432;2023-04-01T10:52:41;11.40;66.40
21335;DHT22;10826;52.536;13.432;2023-04-01T10:56:11;11.40;66.90
21335;DHT22;10826;52.536;13.432;2023-04-01T11:03:09;11.20;66.40
21335;DHT22;10826;52.536;13.432;2023-04-01T11:10:15;11.10;67.00
21335;DHT22;10826;52.536;13.432;2023-04-01T11:17:31;11.20;67.30
21335;DHT22;10826;52.536;13.432;2023-04-01T11:24:15;11.20;66.10
21335;DHT22;10826;52.536;13.432;2023-04-01T11:34:01;11.10;66.40
21335;DHT22;10826;52.536;13.432;2023-04-01T11:37:27;11.10;65.80
21335;DHT22;10826;52.536;13.432;2023-04-01T11:40:54;11.10;65.20
21335;DHT22;10826;52.536;13.432;2023-04-01T11:43:50;11.10;65.90
21335;DHT22;10826;52.536;13.432;2023-04-01T11:50:39;11.00;65.70
21335;DHT22;10826;52.536;13.432;2023-04-01T11:54:03;11.10;66.00
21335;DHT22;10826;52.536;13.432;2023-04-01T12:04:00;11.10;65.30
21335;DHT22;10826;52.536;13.432;2023-04-01T12:14:48;11.00;65.70
21335;DHT22;10826;52.536;13.432;2023-04-01T12:24:52;10.90;64.90
21335;DHT22;10826;52.536;13.432;2023-04-01T12:28:16;10.80;65.40
21335;DHT22;10826;52.536;13.432;2023-04-01T12:35:03;10.70;65.10
21335;DHT22;10826;52.536;13.432;2023-04-01T12:41:37;10.60;66.00
21335;DHT22;10826;52.536;13.432;2023-04-01T12:45:35;10.60;65.70
21335;DHT22;10826;52.536;13.432;2023-04-01T12:51:23;10.50;65.80
21335;DHT22;10826;52.536;13.432;2023-04-01T12:55:00;10.50;65.90
21335;DHT22;10826;52.536;13.432;2023-04-01T12:58:33;10.40;65.50
21335;DHT22;10826;52.536;13.432;2023-04-01T13:01:30;10.40;65.50
21335;DHT22;10826;52.536;13.432;2023-04-01T13:08:21;10.40;66.30
21335;DHT22;10826;52.536;13.432;2023-04-01T13:12:07;10.40;67.00
21335;DHT22;10826;52.536;13.432;2023-04-01T13:21:58;10.30;66.30
21335;DHT22;10826;52.536;13.432;2023-04-01T13:25:24;10.40;66.70
21335;DHT22;10826;52.536;13.432;2023-04-01T13:28:51;10.50;67.60
21335;DHT22;10826;52.536;13.432;2023-04-01T13:35:30;10.60;66.40
21335;DHT22;10826;52.536;13.432;2023-04-01T13:56:08;10.30;65.80
21335;DHT22;10826;52.536;13.432;2023-04-01T14:06:49;10.20;65.50
21335;DHT22;10826;52.536;13.432;2023-04-01T14:10:19;10.20;65.70
21335;DHT22;10826;52.536;13.432;2023-04-01T14:13:50;10.30;66.00
21335;DHT22;10826;52.536;13.432;2023-04-01T14:20:36;10.20;66.30
21335;DHT22;10826;52.536;13.432;2023-04-01T14:23:45;10.20;66.10
21335;DHT22;10826;52.536;13.432;2023-04-01T14:30:42;10.10;65.60
21335;DHT22;10826;52.536;13.432;2023-04-01T14:37:30;9.90;65.60
21335;DHT22;10826;52.536;13.432;2023-04-01T14:40:55;9.90;65.90
21335;DHT22;10826;52.536;13.432;2023-04-01T14:44:01;9.80;65.80
21335;DHT22;10826;52.536;13.432;2023-04-01T14:50:30;9.90;67.10
21335;DHT22;10826;52.536;13.432;2023-04-01T14:53:34;9.80;66.50
21335;DHT22;10826;52.536;13.432;2023-04-01T14:56:46;9.80;66.50
21335;DHT22;10826;52.536;13.432;2023-04-01T14:59:40;9.80;65.90
21335;DHT22;10826;52.536;13.432;2023-04-01T15:02:40;9.70;66.40
21335;DHT22;10826;52.536;13.432;2023-04-01T15:06:07;9.70;66.90
21335;DHT22;10826;52.536;13.432;2023-04-01T15:09:37;9.70;66.00
21335;DHT22;10826;52.536;13.432;2023-04-01T15:19:49;9.60;66.10
21335;DHT22;10826;52.536;13.432;2023-04-01T15:26:38;9.60;65.80
21335;DHT22;10826;52.536;13.432;2023-04-01T15:40:01;9.50;66.50
21335;DHT22;10826;52.536;13.432;2023-04-01T15:46:30;9.60;66.40
21335;DHT22;10826;52.536;13.432;2023-04-01T15:49:30;9.50;65.80
21335;DHT22;10826;52.536;13.432;2023-04-01T15:55:50;9.40;65.50
21335;DHT22;10826;52.536;13.432;2023-04-01T15:59:20;9.40;65.60
21335;DHT22;10826;52.536;13.432;2023-04-01T16:02:33;9.40;65.40
21335;DHT22;10826;52.536;13.432;2023-04-01T16:05:46;9.30;65.20
21335;DHT22;10826;52.536;13.432;2023-04-01T16:09:28;9.20;65.40
21335;DHT22;10826;52.536;13.432;2023-04-01T16:12:53;9.20;65.40
21335;DHT22;10826;52.536;13.432;2023-04-01T16:19:41;9.10;65.50
21335;DHT22;10826;52.536;13.432;2023-04-01T16:22:39;9.10;65.80
21335;DHT22;10826;52.536;13.432;2023-04-01T16:25:44;9.00;65.80
21335;DHT22;10826;52.536;13.432;2023-04-01T16:28:52;9.00;65.80
21335;DHT22;10826;52.536;13.432;2023-04-01T16:31:55;9.10;65.70
21335;DHT22;10826;52.536;13.432;2023-04-01T16:35:03;9.00;65.20
21335;DHT22;10826;52.536;13.432;2023-04-01T16:38:26;9.00;65.40
21335;DHT22;10826;52.536;13.432;2023-04-01T16:41:31;8.90;65.70
21335;DHT22;10826;52.536;13.432;2023-04-01T16:44:26;8.90;65.80
21335;DHT22;10826;52.536;13.432;2023-04-01T16:47:19;8.80;65.50
21335;DHT22;10826;52.536;13.432;2023-04-01T16:53:17;8.70;65.20
21335;DHT22;10826;52.536;13.432;2023-04-01T16:56:24;8.70;65.10
21335;DHT22;10826;52.536;13.432;2023-04-01T16:59:27;8.60;65.20
21335;DHT22;10826;52.536;13.432;2023-04-01T17:02:28;8.60;65.40
21335;DHT22;10826;52.536;13.432;2023-04-01T17:05:20;8.50;65.20
21335;DHT22;10826;52.536;13.432;2023-04-01T17:08:53;8.40;64.90
21335;DHT22;10826;52.536;13.432;2023-04-01T17:12:12;8.40;64.90
21335;DHT22;10826;52.536;13.432;2023-04-01T17:29:02;7.90;65.50
21335;DHT22;10826;52.536;13.432;2023-04-01T17:35:49;7.80;65.50
21335;DHT22;10826;52.536;13.432;2023-04-01T17:42:14;7.70;65.60
21335;DHT22;10826;52.536;13.432;2023-04-01T17:45:21;7.60;65.50
21335;DHT22;10826;52.536;13.432;2023-04-01T17:54:53;7.60;66.00
21335;DHT22;10826;52.536;13.432;2023-04-01T17:58:16;7.50;66.20
21335;DHT22;10826;52.536;13.432;2023-04-01T18:01:51;7.50;66.40
21335;DHT22;10826;52.536;13.432;2023-04-01T18:05:12;7.50;66.40
21335;DHT22;10826;52.536;13.432;2023-04-01T18:14:35;7.40;66.30
21335;DHT22;10826;52.536;13.432;2023-04-01T18:17:33;7.40;66.50
21335;DHT22;10826;52.536;13.432;2023-04-01T18:20:52;7.30;66.70
21335;DHT22;10826;52.536;13.432;2023-04-01T18:23:50;7.30;66.60
21335;DHT22;10826;52.536;13.432;2023-04-01T18:26:43;7.30;67.30
21335;DHT22;10826;52.536;13.432;2023-04-01T18:30:01;7.30;66.70
21335;DHT22;10826;52.536;13.432;2023-04-01T18:33:29;7.30;66.50
21335;DHT22;10826;52.536;13.432;2023-04-01T18:39:50;7.20;66.50
21335;DHT22;10826;52.536;13.432;2023-04-01T18:46:39;7.10;66.50
21335;DHT22;10826;52.536;13.432;2023-04-01T18:49:55;7.00;66.90
21335;DHT22;10826;52.536;13.432;2023-04-01T18:53:30;7.00;66.50
21335;DHT22;10826;52.536;13.432;2023-04-01T18:56:43;7.00;66.50
21335;DHT22;10826;52.536;13.432;2023-04-01T18:59:39;6.90;66.70
21335;DHT22;10826;52.536;13.432;2023-04-01T19:02:40;6.90;66.80
21335;DHT22;10826;52.536;13.432;2023-04-01T19:05:36;6.90;67.10
21335;DHT22;10826;52.536;13.432;2023-04-01T19:08:33;6.80;67.10
21335;DHT22;10826;52.536;13.432;2023-04-01T19:11:30;6.80;67.50
21335;DHT22;10826;52.536;13.432;2023-04-01T19:14:39;6.80;67.40
21335;DHT22;10826;52.536;13.432;2023-04-01T19:18:01;6.90;67.50
21335;DHT22;10826;52.536;13.432;2023-04-01T19:21:13;6.90;67.30
21335;DHT22;10826;52.536;13.432;2023-04-01T19:24:20;6.90;67.10
21335;DHT22;10826;52.536;13.432;2023-04-01T19:27:51;6.90;67.00
21335;DHT22;10826;52.536;13.432;2023-04-01T19:30:59;6.90;66.90
21335;DHT22;10826;52.536;13.432;2023-04-01T19:40:45;6.80;67.10
21335;DHT22;10826;52.536;13.432;2023-04-01T19:47:09;6.80;66.80
21335;DHT22;10826;52.536;13.432;2023-04-01T19:50:27;6.70;67.10
21335;DHT22;10826;52.536;13.432;2023-04-01T19:53:40;6.70;66.90
21335;DHT22;10826;52.536;13.432;2023-04-01T19:57:14;6.70;67.50
21335;DHT22;10826;52.536;13.432;2023-04-01T20:00:24;6.60;66.70
21335;DHT22;10826;52.536;13.432;2023-04-01T20:03:36;6.60;66.70
21335;DHT22;10826;52.536;13.432;2023-04-01T20:06:33;6.60;66.50
21335;DHT22;10826;52.536;13.432;2023-04-01T20:12:32;6.60;66.50
21335;DHT22;10826;52.536;13.432;2023-04-01T20:15:37;6.50;66.40
21335;DHT22;10826;52.536;13.432;2023-04-01T20:18:46;6.50;66.60
21335;DHT22;10826;52.536;13.432;2023-04-01T20:21:44;6.50;66.70
21335;DHT22;10826;52.536;13.432;2023-04-01T20:24:42;6.50;66.50
21335;DHT22;10826;52.536;13.432;2023-04-01T20:27:40;6.50;66.30
21335;DHT22;10826;52.536;13.432;2023-04-01T20:30:57;6.50;66.20
21335;DHT22;10826;52.536;13.432;2023-04-01T20:34:17;6.50;66.30
21335;DHT22;10826;52.536;13.432;2023-04-01T20:40:46;6.40;65.90
21335;DHT22;10826;52.536;13.432;2023-04-01T20:50:42;6.40;65.90
21335;DHT22;10826;52.536;13.432;2023-04-01T20:53:53;6.40;65.80
21335;DHT22;10826;52.536;13.432;2023-04-01T20:57:24;6.40;65.60
21335;DHT22;10826;52.536;13.432;2023-04-01T21:00:31;6.40;65.40
21335;DHT22;10826;52.536;13.432;2023-04-01T21:03:45;6.40;65.10
21335;DHT22;10826;52.536;13.432;2023-04-01T21:10:35;6.40;64.80
21335;DHT22;10826;52.536;13.432;2023-04-01T21:13:56;6.30;64.40
21335;DHT22;10826;52.536;13.432;2023-04-01T21:24:35;6.30;64.40
21335;DHT22;10826;52.536;13.432;2023-04-01T21:28:04;6.40;64.40
21335;DHT22;10826;52.536;13.432;2023-04-01T21:31:08;6.30;64.30
21335;DHT22;10826;52.536;13.432;2023-04-01T21:37:33;6.30;64.10
21335;DHT22;10826;52.536;13.432;2023-04-01T21:41:00;6.30;63.80
21335;DHT22;10826;52.536;13.432;2023-04-01T21:44:36;6.30;63.20
21335;DHT22;10826;52.536;13.432;2023-04-01T22:02:46;6.20;63.10
21335;DHT22;10826;52.536;13.432;2023-04-01T22:05:54;6.20;63.00
21335;DHT22;10826;52.536;13.432;2023-04-01T22:09:31;6.20;63.00
21335;DHT22;10826;52.536;13.432;2023-04-01T22:12:33;6.20;63.00
21335;DHT22;10826;52.536;13.432;2023-04-01T22:18:57;6.20;62.60
21335;DHT22;10826;52.536;13.432;2023-04-01T22:22:04;6.20;62.50
21335;DHT22;10826;52.536;13.432;2023-04-01T22:25:16;6.20;62.00
21335;DHT22;10826;52.536;13.432;2023-04-01T22:28:19;6.20;62.10
21335;DHT22;10826;52.536;13.432;2023-04-01T22:31:13;6.20;62.10
21335;DHT22;10826;52.536;13.432;2023-04-01T22:37:22;6.20;62.00
21335;DHT22;10826;52.536;13.432;2023-04-01T22:40:32;6.20;61.40
21335;DHT22;10826;52.536;13.432;2023-04-01T22:43:40;6.20;61.30
21335;DHT22;10826;52.536;13.432;2023-04-01T22:50:07;6.10;61.60
21335;DHT22;10826;52.536;13.432;2023-04-01T22:56:44;6.10;61.30
21335;DHT22;10826;52.536;13.432;2023-04-01T22:59:55;6.10;61.30
21335;DHT22;10826;52.536;13.432;2023-04-01T23:03:28;6.10;61.10
21335;DHT22;10826;52.536;13.432;2023-04-01T23:06:22;6.10;61.10
21335;DHT22;10826;52.536;13.432;2023-04-01T23:09:26;6.10;61.10
21335;DHT22;10826;52.536;13.432;2023-04-01T23:12:16;6.20;61.00
21335;DHT22;10826;52.536;13.432;2023-04-01T23:15:10;6.20;61.10
21335;DHT22;10826;52.536;13.432;2023-04-01T23:18:05;6.20;61.10
21335;DHT22;10826;52.536;13.432;2023-04-01T23:24:25;6.20;60.80
21335;DHT22;10826;52.536;13.432;2023-04-01T23:27:23;6.20;60.70
21335;DHT22;10826;52.536;13.432;2023-04-01T23:33:37;6.10;59.80
21335;DHT22;10826;52.536;13.432;2023-04-01T23:36:23;6.10;59.70
21335;DHT22;10826;52.536;13.432;2023-04-01T23:39:26;6.10;60.00
21335;DHT22;10826;52.536;13.432;2023-04-01T23:42:26;6.10;60.00
21335;DHT22;10826;52.536;13.432;2023-04-01T23:45:17;6.10;60.00
21335;DHT22;10826;52.536;13.432;2023-04-01T23:48:07;6.10;60.10
21335;DHT22;10826;52.536;13.432;2023-04-01T23:50:59;6.10;59.80
21335;DHT22;10826;52.536;13.432;2023-04-01T23:54:17;6.00;59.30
21335;DHT22;10826;52.536;13.432;2023-04-01T23:57:13;6.00;59.10
